Time;durP1;ratioP1;P1;durP2;ratioP2;P2;SDS_P1;SDS_P2;PMS_P1;PMS_P2;Temp;Humidity;BMP_temperature;BMP_pressure;BME280_temperature;BME280_humidity;BME280_pressure;Samples;Min_cycle;Max_cycle;Signal;HPM_P1;HPM_P2
2023/06/16 00:02:07;;;;;;;;;13.00;13.00;;;;;26.24;32.72;101257.69;4940189;28;45503;-70
2023/06/16 00:04:33;;;;;;;;;12.67;12.67;;;;;26.26;32.32;101254.94;4940759;28;45459;-71
2023/06/16 00:07:03;;;;;;;;;12.33;12.00;;;;;26.29;32.54;101252.06;4938743;28;45717;-77
2023/06/16 00:09:38;;;;;;;;;13.00;11.67;;;;;26.36;32.92;101265.09;4937791;28;45798;-75
2023/06/16 00:12:06;;;;;;;;;15.00;13.33;;;;;26.32;32.78;101268.03;4938762;28;45420;-74
2023/06/16 00:14:36;;;;;;;;;14.33;13.00;;;;;26.26;32.49;101257.63;4935871;28;45706;-75
2023/06/16 00:17:03;;;;;;;;;16.33;16.00;;;;;26.27;32.64;101276.34;4935693;28;45586;-72
2023/06/16 00:19:31;;;;;;;;;12.00;9.67;;;;;26.25;32.48;101266.66;4937412;28;46241;-72
2023/06/16 00:22:00;;;;;;;;;14.33;12.33;;;;;26.27;32.44;101270.97;4934374;28;45567;-73
2023/06/16 00:24:26;;;;;;;;;10.00;10.00;;;;;26.21;32.63;101264.09;4946983;28;45730;-76
2023/06/16 00:26:54;;;;;;;;;12.67;10.00;;;;;26.23;32.41;101259.53;4954207;28;45688;-71
2023/06/16 00:29:19;;;;;;;;;10.67;10.00;;;;;26.18;32.74;101256.22;4943440;28;45730;-75
2023/06/16 00:31:45;;;;;;;;;9.33;7.67;;;;;26.22;32.87;101265.84;4933987;28;45865;-74
2023/06/16 00:34:11;;;;;;;;;11.00;11.00;;;;;26.18;32.63;101256.22;4935510;28;45301;-73
2023/06/16 00:36:36;;;;;;;;;12.67;12.00;;;;;26.10;32.90;101244.16;4936351;28;45371;-74
2023/06/16 00:39:02;;;;;;;;;13.33;11.00;;;;;26.04;33.01;101247.22;4935609;28;46185;-76
2023/06/16 00:41:28;;;;;;;;;11.67;11.67;;;;;26.10;33.02;101261.16;4954763;28;45450;-72
2023/06/16 00:43:55;;;;;;;;;12.33;12.33;;;;;25.95;32.98;101233.31;4946717;28;45496;-74
2023/06/16 00:46:29;;;;;;;;;13.00;11.33;;;;;26.15;32.96;101267.16;4954907;28;45840;-76
2023/06/16 00:48:56;;;;;;;;;14.67;14.67;;;;;26.17;33.11;101262.56;4954430;28;46384;-73
2023/06/16 00:51:25;;;;;;;;;12.00;11.67;;;;;26.23;32.91;101267.56;4953543;28;45450;-75
2023/06/16 00:53:51;;;;;;;;;11.67;9.33;;;;;26.22;33.11;101262.31;4955091;28;45562;-76
2023/06/16 00:56:16;;;;;;;;;12.67;11.00;;;;;26.28;32.72;101263.78;4953707;28;45570;-74
2023/06/16 00:58:43;;;;;;;;;11.00;11.00;;;;;26.35;32.71;101267.84;4970994;28;46667;-75
2023/06/16 01:01:09;;;;;;;;;15.00;12.00;;;;;26.37;32.94;101271.31;4956637;28;45575;-75
2023/06/16 01:03:34;;;;;;;;;12.33;11.00;;;;;26.36;32.98;101266.88;4953012;28;46134;-74
2023/06/16 01:06:06;;;;;;;;;12.33;12.33;;;;;26.39;33.00;101270.28;4942390;28;45393;-74
2023/06/16 01:08:46;;;;;;;;;14.33;13.33;;;;;26.23;33.15;101242.56;4949652;28;47717;-73
2023/06/16 01:11:21;;;;;;;;;12.33;12.33;;;;;26.40;32.77;101266.63;4935083;28;45412;-72
2023/06/16 01:14:07;;;;;;;;;13.33;13.00;;;;;26.36;32.82;101262.41;4933751;28;45517;-69
2023/06/16 01:16:35;;;;;;;;;10.33;10.33;;;;;26.37;32.76;101264.13;4954324;28;45587;-75
2023/06/16 01:19:08;;;;;;;;;13.33;12.67;;;;;26.32;32.95;101252.78;4952771;28;48084;-74
2023/06/16 01:22:11;;;;;;;;;13.00;11.00;;;;;26.39;32.86;101264.91;4954370;28;45470;-77
2023/06/16 01:24:37;;;;;;;;;13.00;12.33;;;;;26.39;33.17;101270.28;4955904;28;45802;-77
2023/06/16 01:27:05;;;;;;;;;11.00;11.00;;;;;26.35;33.20;101270.53;4954779;28;45380;-73
2023/06/16 01:29:36;;;;;;;;;10.33;9.33;;;;;26.32;32.91;101258.16;4952796;28;48381;-74
2023/06/16 01:32:04;;;;;;;;;13.00;11.33;;;;;26.28;32.97;101244.97;4944042;28;45693;-75
2023/06/16 01:34:33;;;;;;;;;11.33;10.33;;;;;26.31;33.09;101251.03;4953265;28;45424;-73
2023/06/16 01:37:01;;;;;;;;;14.67;13.00;;;;;26.19;33.93;101251.72;4938981;28;45478;-75
2023/06/16 01:39:28;;;;;;;;;13.00;12.33;;;;;26.18;33.85;101258.06;4938906;28;45747;-75
2023/06/16 01:41:54;;;;;;;;;12.33;10.00;;;;;26.12;33.74;101251.19;4938788;28;45484;-77
2023/06/16 01:44:21;;;;;;;;;11.67;11.00;;;;;26.16;33.62;101255.44;4938208;28;45480;-76
2023/06/16 01:46:48;;;;;;;;;15.00;13.00;;;;;26.15;34.08;101253.72;4963605;28;45392;-75
2023/06/16 01:49:14;;;;;;;;;15.33;12.67;;;;;26.07;34.15;101247.88;4955395;28;45408;-72
2023/06/16 01:51:40;;;;;;;;;13.33;12.00;;;;;25.99;33.97;101245.63;4959961;28;45509;-75
2023/06/16 01:54:06;;;;;;;;;14.33;13.33;;;;;25.96;34.32;101255.66;4960180;28;45368;-76
2023/06/16 01:56:31;;;;;;;;;13.00;12.33;;;;;25.95;34.37;101256.63;4960548;28;45424;-75
2023/06/16 01:58:58;;;;;;;;;16.00;10.33;;;;;25.73;34.69;101222.88;4961797;28;46490;-75
2023/06/16 02:01:28;;;;;;;;;11.67;11.67;;;;;25.95;34.44;101262.84;4959799;28;45372;-76
2023/06/16 02:04:06;;;;;;;;;12.67;12.33;;;;;25.91;33.99;101257.72;4952724;28;45467;-75
2023/06/16 02:06:41;;;;;;;;;14.00;11.33;;;;;25.95;34.30;101267.34;4941408;28;45516;-76
2023/06/16 02:09:09;;;;;;;;;12.33;12.33;;;;;25.93;34.21;101262.06;4942082;28;45660;-77
2023/06/16 02:11:36;;;;;;;;;15.33;12.67;;;;;25.95;33.85;101267.34;4942142;28;45389;-77
2023/06/16 02:14:04;;;;;;;;;12.67;11.00;;;;;25.88;34.29;101249.84;4939904;28;45370;-75
2023/06/16 02:16:37;;;;;;;;;12.67;12.67;;;;;25.86;33.83;101254.41;4953283;28;45578;-73
2023/06/16 02:19:03;;;;;;;;;10.00;9.67;;;;;25.85;33.88;101248.16;4945646;28;46282;-75
2023/06/16 02:21:28;;;;;;;;;12.67;12.67;;;;;25.93;33.83;101261.19;4957301;28;45621;-75
2023/06/16 02:23:54;;;;;;;;;14.00;13.00;;;;;25.84;34.22;101245.56;4934024;28;45375;-75
2023/06/16 02:26:21;;;;;;;;;12.00;10.67;;;;;25.87;34.34;101254.34;4918704;28;45988;-75
2023/06/16 02:28:48;;;;;;;;;11.00;11.00;;;;;25.92;34.21;101256.78;4935283;28;47639;-75
2023/06/16 02:31:17;;;;;;;;;14.67;13.00;;;;;25.89;33.90;101256.94;4920770;28;45492;-72
2023/06/16 02:33:44;;;;;;;;;13.67;11.67;;;;;25.83;34.71;101260.78;4971293;28;45499;-76
2023/06/16 02:36:10;;;;;;;;;12.67;12.33;;;;;25.66;34.68;101250.09;4957126;28;45570;-76
2023/06/16 02:38:36;;;;;;;;;12.67;12.67;;;;;25.55;34.67;101234.56;4958461;28;46020;-72
2023/06/16 02:41:01;;;;;;;;;12.00;12.00;;;;;25.50;35.06;101240.16;4961564;28;46228;-75
2023/06/16 02:43:27;;;;;;;;;15.00;13.00;;;;;25.46;35.28;101249.34;4959149;28;45467;-77
2023/06/16 02:45:53;;;;;;;;;11.67;11.67;;;;;25.52;35.81;101258.88;4955792;28;45844;-76
2023/06/16 02:48:19;;;;;;;;;16.00;14.00;;;;;25.48;35.58;101260.84;4955316;28;45689;-77
2023/06/16 02:50:44;;;;;;;;;12.67;11.00;;;;;25.48;35.63;101260.84;4956856;28;45610;-73
2023/06/16 02:53:10;;;;;;;;;14.67;13.33;;;;;25.35;35.67;101243.66;4956804;28;45498;-75
2023/06/16 02:55:36;;;;;;;;;14.67;12.67;;;;;25.28;35.89;101247.63;4956898;28;45550;-74
2023/06/16 02:58:01;;;;;;;;;13.00;11.00;;;;;25.31;35.75;101248.31;4958576;28;45339;-73
2023/06/16 03:00:27;;;;;;;;;11.67;11.67;;;;;25.20;35.49;101239.09;4941255;28;45604;-74
2023/06/16 03:02:53;;;;;;;;;14.00;13.33;;;;;25.30;36.01;101257.31;4937644;28;45476;-75
2023/06/16 03:05:18;;;;;;;;;12.33;12.33;;;;;25.29;35.68;101255.56;4937266;28;45519;-73
2023/06/16 03:07:44;;;;;;;;;13.33;11.00;;;;;25.29;35.21;101250.19;4935433;28;47604;-75
2023/06/16 03:10:11;;;;;;;;;10.33;10.33;;;;;25.25;36.26;101254.00;4937463;28;45364;-75
2023/06/16 03:12:36;;;;;;;;;13.67;12.67;;;;;25.24;35.86;101252.25;4954714;28;45436;-75
2023/06/16 03:15:05;;;;;;;;;12.33;12.33;;;;;25.20;35.64;101242.66;4941109;28;45400;-74
2023/06/16 03:17:32;;;;;;;;;10.33;10.33;;;;;25.24;35.90;101254.94;4940757;28;46055;-71
2023/06/16 03:19:57;;;;;;;;;11.00;10.67;;;;;25.27;35.51;101254.78;4946958;28;45535;-73
2023/06/16 03:22:23;;;;;;;;;12.00;12.00;;;;;25.15;35.71;101231.25;4956459;28;45451;-72
2023/06/16 03:24:50;;;;;;;;;13.67;13.67;;;;;25.28;35.71;101247.63;4956835;28;45777;-72
2023/06/16 03:27:15;;;;;;;;;11.00;11.00;;;;;25.33;35.65;101261.66;4957317;28;47911;-70
2023/06/16 03:29:42;;;;;;;;;13.00;12.33;;;;;25.32;35.28;101260.78;4960234;28;45404;-72
2023/06/16 03:32:08;;;;;;;;;14.33;13.00;;;;;25.24;35.62;101248.72;4959006;28;45452;-71
2023/06/16 03:34:34;;;;;;;;;12.33;12.33;;;;;25.33;35.28;101267.88;4950152;28;46204;-71
2023/06/16 03:36:59;;;;;;;;;13.33;12.33;;;;;25.34;35.13;101268.72;4935685;28;47531;-71
2023/06/16 03:39:25;;;;;;;;;16.00;15.33;;;;;25.30;35.25;101268.03;4935886;28;45925;-71
2023/06/16 03:41:51;;;;;;;;;12.33;12.33;;;;;25.32;35.33;101271.50;4936922;28;45656;-71
2023/06/16 03:44:17;;;;;;;;;12.33;11.67;;;;;25.34;35.39;101272.31;4951241;28;45373;-70
2023/06/16 03:46:42;;;;;;;;;16.00;15.00;;;;;25.17;35.32;101242.75;4958907;28;46115;-70
2023/06/16 03:49:08;;;;;;;;;12.00;12.00;;;;;25.30;35.59;101264.50;4955881;28;45357;-71
2023/06/16 03:51:34;;;;;;;;;11.00;11.00;;;;;25.25;35.39;101253.13;4955572;28;45487;-72
2023/06/16 03:54:00;;;;;;;;;12.00;11.33;;;;;25.31;35.62;101267.06;4955518;28;45309;-74
2023/06/16 03:56:25;;;;;;;;;13.67;13.33;;;;;25.26;35.37;101254.88;4955704;28;46635;-72
2023/06/16 03:58:51;;;;;;;;;13.67;11.67;;;;;25.32;35.73;101265.28;4941328;28;45476;-72
2023/06/16 04:01:20;;;;;;;;;13.67;13.67;;;;;25.31;35.75;101267.06;4936275;28;45380;-73
2023/06/16 04:03:47;;;;;;;;;13.00;13.00;;;;;25.26;35.50;101262.91;4936249;28;45441;-75
2023/06/16 04:06:12;;;;;;;;;14.33;11.67;;;;;25.20;35.33;101253.38;4961084;28;45506;-72
2023/06/16 04:08:38;;;;;;;;;16.00;14.00;;;;;25.21;35.42;101257.78;4958214;28;45562;-74
2023/06/16 04:11:04;;;;;;;;;10.33;10.00;;;;;25.26;35.71;101260.22;4956324;28;45444;-75
2023/06/16 04:13:33;;;;;;;;;14.00;12.33;;;;;25.21;35.92;101259.59;4953857;28;45602;-73
2023/06/16 04:15:59;;;;;;;;;14.67;12.00;;;;;25.20;36.27;101266.78;4958619;28;45467;-75
2023/06/16 04:18:24;;;;;;;;;18.67;16.33;;;;;25.00;36.97;101258.84;4953443;28;45565;-77
2023/06/16 04:20:50;;;;;;;;;16.33;14.33;;;;;25.02;36.97;101278.38;4954876;28;45656;-75
2023/06/16 04:23:16;;;;;;;;;14.00;14.00;;;;;25.01;36.39;101272.16;4955051;28;45394;-72
2023/06/16 04:25:42;;;;;;;;;12.33;12.33;;;;;25.09;36.44;101274.47;4957911;28;45994;-75
2023/06/16 04:28:13;;;;;;;;;15.00;11.67;;;;;25.12;36.43;101268.94;4958261;28;45358;-76
2023/06/16 04:30:43;;;;;;;;;12.00;11.67;;;;;25.16;36.13;101278.56;4958638;28;45377;-73
2023/06/16 04:33:12;;;;;;;;;12.00;10.33;;;;;25.22;36.53;101280.94;4953957;28;45329;-72
2023/06/16 04:35:39;;;;;;;;;13.33;11.00;;;;;25.23;36.21;101287.19;4956523;28;45599;-75
2023/06/16 04:38:05;;;;;;;;;11.33;11.33;;;;;25.26;36.29;101281.66;4956974;28;45463;-73
2023/06/16 04:40:30;;;;;;;;;19.00;12.67;;;;;25.30;35.93;101286.81;4940005;28;45409;-74
2023/06/16 04:42:56;;;;;;;;;14.00;12.00;;;;;25.33;35.70;101289.31;4940074;28;45547;-73
2023/06/16 04:45:22;;;;;;;;;15.00;12.33;;;;;25.33;35.76;101277.72;4954236;28;47960;-75
2023/06/16 04:47:50;;;;;;;;;14.00;11.67;;;;;25.33;35.84;101275.91;4950926;28;45398;-73
2023/06/16 04:50:16;;;;;;;;;14.67;12.33;;;;;25.25;35.99;101264.72;4966433;28;45494;-75
2023/06/16 04:52:42;;;;;;;;;12.33;12.33;;;;;25.33;36.10;101267.00;4959417;28;45520;-72
2023/06/16 04:55:09;;;;;;;;;13.33;11.67;;;;;25.41;36.12;101271.97;4959122;28;46630;-74
2023/06/16 04:57:36;;;;;;;;;13.00;12.33;;;;;25.48;36.02;101284.97;4954326;28;45766;-76
2023/06/16 05:00:06;;;;;;;;;12.33;12.33;;;;;25.51;35.94;101286.66;4953988;28;45701;-80
2023/06/16 05:02:32;;;;;;;;;12.67;12.67;;;;;25.45;35.65;101268.19;4957326;28;45464;-70
2023/06/16 05:04:58;;;;;;;;;15.33;15.33;;;;;25.55;36.00;101281.03;4944110;28;46049;-77
2023/06/16 05:07:24;;;;;;;;;17.67;13.67;;;;;25.60;35.69;101275.41;4938354;28;45305;-75
2023/06/16 05:09:49;;;;;;;;;14.00;14.00;;;;;25.57;35.68;101259.50;4939456;28;45466;-75
2023/06/16 05:12:15;;;;;;;;;15.67;13.00;;;;;25.67;35.81;101270.59;4938743;28;45396;-74
2023/06/16 05:14:40;;;;;;;;;14.00;14.00;;;;;25.65;35.46;101265.34;4953589;28;45562;-71
2023/06/16 05:17:06;;;;;;;;;16.67;16.00;;;;;25.69;35.95;101264.22;4954714;28;45380;-70
2023/06/16 05:19:34;;;;;;;;;18.67;14.00;;;;;25.73;35.49;101267.63;4957178;28;45353;-71
2023/06/16 05:22:01;;;;;;;;;16.00;16.00;;;;;25.84;35.82;101275.97;4942639;28;45561;-73
2023/06/16 05:24:26;;;;;;;;;12.00;10.67;;;;;25.79;35.54;101265.47;4951111;28;45696;-72
2023/06/16 05:26:52;;;;;;;;;15.00;14.67;;;;;25.89;35.30;101273.94;4934054;28;45421;-70
2023/06/16 05:29:17;;;;;;;;;16.67;13.00;;;;;25.83;35.13;101257.25;4935216;28;46032;-69
2023/06/16 05:31:43;;;;;;;;;17.00;14.33;;;;;26.00;34.97;101278.69;4935068;28;45684;-73
2023/06/16 05:34:08;;;;;;;;;15.67;15.00;;;;;26.06;35.07;101277.53;4934981;28;46066;-75
2023/06/16 05:36:35;;;;;;;;;14.33;13.67;;;;;26.02;35.23;101264.25;4950286;28;45434;-71
2023/06/16 05:39:07;;;;;;;;;18.00;15.67;;;;;26.10;35.22;101268.31;4960420;28;45457;-70
2023/06/16 05:41:34;;;;;;;;;13.67;13.67;;;;;26.10;34.82;101274.59;4944778;28;45486;-71
2023/06/16 05:44:00;;;;;;;;;15.33;15.00;;;;;26.09;34.74;101259.41;4937590;28;45541;-74
2023/06/16 05:46:29;;;;;;;;;16.67;16.67;;;;;26.21;35.08;101268.63;4935655;28;45788;-74
2023/06/16 05:48:55;;;;;;;;;20.00;17.00;;;;;26.16;35.45;101265.31;4935187;28;45479;-75
2023/06/16 05:51:20;;;;;;;;;14.33;14.33;;;;;26.08;35.72;101275.59;4932894;28;45428;-76
2023/06/16 05:53:47;;;;;;;;;16.00;15.00;;;;;26.13;35.90;101274.41;4934506;28;45954;-73
2023/06/16 05:56:12;;;;;;;;;20.00;18.67;;;;;26.02;35.59;101256.19;4937057;28;45443;-73
2023/06/16 05:58:38;;;;;;;;;20.00;19.00;;;;;26.01;35.68;101267.91;4939241;28;45415;-75
2023/06/16 06:01:06;;;;;;;;;15.33;15.00;;;;;25.87;36.37;101267.78;4939383;28;45298;-71
2023/06/16 06:03:32;;;;;;;;;17.67;17.67;;;;;25.78;36.14;101253.00;4936564;28;46260;-75
2023/06/16 06:05:57;;;;;;;;;16.33;16.00;;;;;25.93;36.01;101267.44;4934828;28;45432;-70
2023/06/16 06:08:27;;;;;;;;;18.33;17.33;;;;;26.07;35.68;101276.56;4934132;28;45703;-72
2023/06/16 06:10:54;;;;;;;;;24.00;21.33;;;;;26.14;35.26;101269.91;4949759;28;45531;-71
2023/06/16 06:13:20;;;;;;;;;22.67;19.00;;;;;26.17;35.70;101277.78;4935900;28;45973;-70
2023/06/16 06:15:46;;;;;;;;;19.67;15.33;;;;;26.19;35.16;101273.19;4953593;28;45432;-75
2023/06/16 06:18:11;;;;;;;;;20.00;16.00;;;;;26.32;35.12;101266.22;4936237;28;45489;-75
2023/06/16 06:20:40;;;;;;;;;16.67;16.67;;;;;26.50;35.33;101279.56;4964673;28;45425;-69
2023/06/16 06:23:06;;;;;;;;;16.00;15.67;;;;;26.54;34.59;101267.72;4957417;28;45498;-70
2023/06/16 06:25:31;;;;;;;;;17.67;15.33;;;;;26.77;34.42;101279.84;4961271;28;45424;-71
2023/06/16 06:27:58;;;;;;;;;18.00;15.00;;;;;26.84;33.88;101276.72;4961761;28;45408;-74
2023/06/16 06:30:27;;;;;;;;;22.67;19.67;;;;;26.94;34.45;101293.19;4961806;28;45404;-76
2023/06/16 06:32:52;;;;;;;;;19.67;18.33;;;;;26.94;33.91;101289.63;4952565;28;46955;-73
2023/06/16 06:35:19;;;;;;;;;23.00;19.67;;;;;26.71;34.02;101297.16;4918329;28;46088;-74
2023/06/16 06:37:44;;;;;;;;;18.67;17.00;;;;;26.63;33.70;101300.31;4937754;28;45476;-75
2023/06/16 06:40:10;;;;;;;;;18.67;16.67;;;;;26.52;34.08;101296.44;4961610;28;45367;-74
2023/06/16 06:42:36;;;;;;;;;19.67;19.33;;;;;26.61;34.02;101287.91;4959638;28;46716;-74
2023/06/16 06:45:02;;;;;;;;;22.67;18.00;;;;;26.82;33.94;101308.19;4954254;28;45605;-74
2023/06/16 06:47:27;;;;;;;;;18.67;17.33;;;;;27.00;33.81;101297.31;4950366;28;45548;-75
2023/06/16 06:49:54;;;;;;;;;22.00;18.67;;;;;27.16;33.33;101294.59;4952104;28;45481;-74
2023/06/16 06:52:19;;;;;;;;;22.67;19.00;;;;;27.38;32.62;101307.69;4937384;28;46274;-74
2023/06/16 06:54:45;;;;;;;;;21.67;18.00;;;;;27.45;32.35;101298.28;4937211;28;45336;-74
2023/06/16 06:57:12;;;;;;;;;20.00;19.00;;;;;27.66;32.77;101313.13;4936402;28;45377;-75
2023/06/16 06:59:41;;;;;;;;;17.00;16.00;;;;;27.79;32.39;101317.78;4936650;28;45535;-74
2023/06/16 07:02:07;;;;;;;;;19.67;18.67;;;;;27.86;32.11;101320.03;4936070;28;45476;-72
2023/06/16 07:04:34;;;;;;;;;22.00;18.33;;;;;27.91;31.81;101323.31;4939621;28;45406;-76
2023/06/16 07:07:01;;;;;;;;;18.33;18.33;;;;;28.06;31.73;101329.56;4937932;28;45314;-73
2023/06/16 07:09:27;;;;;;;;;20.67;19.00;;;;;28.10;31.35;101328.41;4941332;28;45507;-71
2023/06/16 07:11:59;;;;;;;;;19.00;17.67;;;;;28.13;31.19;101330.91;4940600;28;46087;-71
2023/06/16 07:14:26;;;;;;;;;18.67;17.67;;;;;28.07;31.40;101327.72;4936914;28;45884;-74
2023/06/16 07:16:52;;;;;;;;;23.33;22.00;;;;;28.01;31.19;101326.28;4936325;28;45471;-72
2023/06/16 07:19:23;;;;;;;;;20.00;20.00;;;;;27.81;31.54;101327.50;4936526;28;45808;-74
2023/06/16 07:21:49;;;;;;;;;22.67;21.33;;;;;27.66;31.30;101326.59;4936702;28;46026;-71
2023/06/16 07:24:15;;;;;;;;;20.33;18.00;;;;;27.73;31.97;101332.47;4935659;28;45951;-71
2023/06/16 07:26:42;;;;;;;;;21.00;20.33;;;;;27.66;31.92;101341.88;4937166;28;45424;-72
2023/06/16 07:29:07;;;;;;;;;24.33;23.33;;;;;27.55;31.49;101331.78;4936769;28;45432;-75
2023/06/16 07:31:33;;;;;;;;;23.67;21.33;;;;;27.46;32.04;101322.41;4934385;28;47461;-73
2023/06/16 07:33:59;;;;;;;;;24.33;24.00;;;;;27.49;31.65;101341.06;4951363;28;45306;-73
2023/06/16 07:36:24;;;;;;;;;21.33;19.67;;;;;27.46;31.39;101337.69;4935287;28;45757;-73
2023/06/16 07:38:50;;;;;;;;;21.00;20.67;;;;;27.47;31.34;101323.28;4954169;28;45571;-72
2023/06/16 07:41:16;;;;;;;;;22.33;21.00;;;;;27.62;31.64;101329.53;4954087;28;46759;-72
2023/06/16 07:43:41;;;;;;;;;24.00;22.00;;;;;27.62;32.03;101314.28;4955846;28;45360;-74
2023/06/16 07:46:07;;;;;;;;;24.33;22.33;;;;;27.68;30.92;101338.13;4930269;28;45641;-76
2023/06/16 07:48:32;;;;;;;;;21.67;20.00;;;;;27.63;30.94;101323.22;4939464;28;45606;-77
2023/06/16 07:50:58;;;;;;;;;16.00;16.00;;;;;27.72;31.04;101330.75;4933185;28;46694;-74
2023/06/16 07:53:24;;;;;;;;;20.67;20.67;;;;;27.70;31.61;101322.75;4934731;28;45524;-77
2023/06/16 07:55:51;;;;;;;;;22.33;21.00;;;;;27.81;30.58;101334.69;4953825;28;45540;-75
2023/06/16 07:58:16;;;;;;;;;19.00;17.33;;;;;27.70;30.31;101336.22;4936148;28;46352;-76
2023/06/16 08:00:42;;;;;;;;;22.67;22.67;;;;;27.55;30.72;101321.00;4933427;28;45293;-79
2023/06/16 08:03:08;;;;;;;;;19.00;19.00;;;;;27.65;31.11;101330.25;4933227;28;45432;-77
2023/06/16 08:05:34;;;;;;;;;21.33;20.33;;;;;27.84;30.68;101350.69;4934020;28;45356;-78
2023/06/16 08:07:59;;;;;;;;;20.00;18.00;;;;;27.72;30.97;101302.97;4937073;28;45770;-74
2023/06/16 08:10:26;;;;;;;;;24.67;22.33;;;;;28.00;30.15;101334.44;4940781;28;45552;-77
2023/06/16 08:12:51;;;;;;;;;22.00;21.33;;;;;28.08;31.31;101335.72;4936306;28;45564;-76
2023/06/16 08:15:18;;;;;;;;;19.67;19.33;;;;;28.19;31.21;101334.16;4934524;28;45615;-77
2023/06/16 08:17:44;;;;;;;;;22.00;21.67;;;;;28.03;30.46;101307.34;4932888;28;45598;-71
2023/06/16 08:20:14;;;;;;;;;20.67;20.67;;;;;28.17;30.77;101328.03;4934604;28;46186;-81
2023/06/16 08:22:39;;;;;;;;;19.67;18.33;;;;;28.27;30.72;101330.03;4933171;28;45286;-79
2023/06/16 08:25:05;;;;;;;;;21.00;19.00;;;;;28.27;30.77;101324.66;4933776;28;45522;-76
2023/06/16 08:27:30;;;;;;;;;19.00;19.00;;;;;28.39;31.48;101324.84;4933702;28;45341;-77
2023/06/16 08:29:57;;;;;;;;;23.67;22.67;;;;;28.46;30.24;101323.53;4935774;28;45732;-77
2023/06/16 08:32:29;;;;;;;;;17.67;15.00;;;;;28.48;29.96;101324.31;4934166;28;45698;-80
2023/06/16 08:34:55;;;;;;;;;22.33;21.33;;;;;28.26;30.35;101273.56;4932497;28;45768;-78
2023/06/16 08:37:22;;;;;;;;;21.67;20.00;;;;;28.62;30.04;101320.72;4934751;28;45525;-75
2023/06/16 08:39:48;;;;;;;;;25.00;20.33;;;;;28.66;31.40;101311.44;4930586;28;45809;-77
2023/06/16 08:42:15;;;;;;;;;16.33;15.33;;;;;28.79;28.42;101309.69;4939663;28;45614;-76
2023/06/16 08:44:42;;;;;;;;;19.00;16.00;;;;;28.77;29.74;101305.38;4939609;28;45403;-79
2023/06/16 08:47:09;;;;;;;;;19.00;16.67;;;;;28.95;27.87;101313.13;4939544;28;45294;-77
2023/06/16 08:49:35;;;;;;;;;18.00;17.67;;;;;28.99;26.69;101297.59;4956180;28;46175;-75
2023/06/16 08:52:08;;;;;;;;;17.00;13.67;;;;;28.86;26.34;101283.19;4958662;28;45531;-73
2023/06/16 08:54:48;;;;;;;;;16.33;15.33;;;;;28.95;27.02;101298.78;4973335;28;45503;-77
2023/06/16 08:57:14;;;;;;;;;15.33;13.33;;;;;29.13;26.59;101307.47;4938902;28;45306;-73
2023/06/16 08:59:45;;;;;;;;;21.00;21.00;;;;;29.17;26.41;101295.53;4934952;28;45514;-75
2023/06/16 09:02:11;;;;;;;;;16.67;15.33;;;;;29.14;26.78;101306.53;4950749;28;45567;-77
2023/06/16 09:04:37;;;;;;;;;19.33;17.67;;;;;29.16;26.36;101310.84;4953233;28;45440;-77
2023/06/16 09:07:03;;;;;;;;;19.67;17.33;;;;;29.09;26.45;101304.16;4937511;28;45550;-79
2023/06/16 09:09:28;;;;;;;;;16.00;16.00;;;;;29.16;26.98;101293.78;4940307;28;45799;-76
2023/06/16 09:12:08;;;;;;;;;19.00;18.33;;;;;29.32;26.22;101299.00;4950497;28;45612;-78
2023/06/16 09:14:37;;;;;;;;;13.00;12.33;;;;;29.35;25.19;101306.88;4951399;28;45332;-79
2023/06/16 09:17:07;;;;;;;;;17.00;15.00;;;;;29.34;25.64;101297.06;4937130;28;45483;-78
2023/06/16 09:19:34;;;;;;;;;19.00;18.67;;;;;29.15;25.73;101257.84;4952860;28;45740;-77
2023/06/16 09:22:00;;;;;;;;;19.67;16.00;;;;;29.37;24.69;101308.50;4957692;28;45284;-75
2023/06/16 09:24:27;;;;;;;;;17.33;16.33;;;;;29.25;24.94;101308.50;4955006;28;45628;-78
2023/06/16 09:26:59;;;;;;;;;16.67;16.67;;;;;29.00;25.49;101269.66;4946122;28;45409;-77
2023/06/16 09:29:28;;;;;;;;;18.00;17.33;;;;;29.31;25.16;101302.69;4934830;28;46620;-76
2023/06/16 09:32:06;;;;;;;;;17.67;16.00;;;;;29.30;24.33;101306.34;4934869;28;45386;-78
2023/06/16 09:34:32;;;;;;;;;19.00;17.00;;;;;28.95;24.12;101255.63;4953068;28;45490;-77
2023/06/16 09:36:58;;;;;;;;;15.00;15.00;;;;;29.02;24.21;101264.16;4958480;28;45504;-75
2023/06/16 09:39:26;;;;;;;;;16.67;16.67;;;;;29.18;24.54;101272.97;4952745;28;48240;-76
2023/06/16 09:41:54;;;;;;;;;14.67;13.00;;;;;29.25;23.79;101290.47;4950683;28;45911;-77
2023/06/16 09:44:30;;;;;;;;;14.67;14.00;;;;;29.25;24.32;101289.59;4957104;28;45325;-78
2023/06/16 09:46:59;;;;;;;;;16.00;13.75;;;;;29.22;24.13;101276.34;4955113;28;45533;-76
2023/06/16 09:49:28;;;;;;;;;15.67;13.33;;;;;29.27;24.61;101277.75;4953865;28;46125;-78
2023/06/16 09:51:56;;;;;;;;;17.67;16.00;;;;;29.41;23.64;101302.94;4954771;28;45418;-75
2023/06/16 09:54:23;;;;;;;;;17.00;15.00;;;;;29.24;24.75;101252.81;4960178;28;45380;-77
2023/06/16 09:56:49;;;;;;;;;17.67;17.00;;;;;29.32;24.47;101272.03;4948847;28;45643;-75
2023/06/16 09:59:16;;;;;;;;;17.33;15.33;;;;;29.14;24.08;101258.84;4938887;28;46063;-72
2023/06/16 10:01:43;;;;;;;;;17.00;17.00;;;;;29.40;24.11;101291.28;4937010;28;45651;-73
2023/06/16 10:04:15;;;;;;;;;20.00;18.00;;;;;29.43;23.97;101296.44;4961192;28;45429;-75
2023/06/16 10:06:50;;;;;;;;;19.00;17.33;;;;;29.44;23.88;101291.91;4945290;28;46399;-77
2023/06/16 10:09:41;;;;;;;;;15.33;14.33;;;;;29.40;23.25;101280.47;4958135;28;45629;-75
2023/06/16 10:12:12;;;;;;;;;30.67;28.33;;;;;29.45;23.63;101286.41;4926653;28;45620;-77
2023/06/16 10:14:40;;;;;;;;;20.67;20.00;;;;;29.54;22.97;101285.78;4938275;28;45498;-77
2023/06/16 10:17:10;;;;;;;;;22.67;19.67;;;;;29.64;22.79;101288.72;4938417;28;45908;-77
2023/06/16 10:19:38;;;;;;;;;17.33;17.33;;;;;29.51;23.23;101267.09;4936939;28;45780;-77
2023/06/16 10:22:03;;;;;;;;;17.33;17.33;;;;;29.71;22.96;101281.06;4938068;28;45540;-78
2023/06/16 10:24:30;;;;;;;;;22.67;18.33;;;;;29.52;23.07;101239.16;4941226;28;45431;-78
2023/06/16 10:26:57;;;;;;;;;15.67;15.67;;;;;29.62;23.28;101270.91;4938511;28;45495;-79
2023/06/16 10:29:25;;;;;;;;;15.67;15.67;;;;;29.74;23.26;101278.16;4936585;28;47856;-80
2023/06/16 10:32:06;;;;;;;;;15.33;15.00;;;;;29.55;23.02;101257.81;4953299;28;45887;-78
2023/06/16 10:34:34;;;;;;;;;20.00;18.00;;;;;29.75;23.46;101279.88;4945642;28;45328;-76
2023/06/16 10:37:01;;;;;;;;;23.33;21.33;;;;;29.43;23.13;101249.72;4957143;28;45537;-75
2023/06/16 10:39:27;;;;;;;;;17.33;17.00;;;;;29.44;23.06;101271.19;4956164;28;46547;-77
2023/06/16 10:42:00;;;;;;;;;22.33;16.33;;;;;29.48;23.70;101267.31;4956470;28;45550;-77
2023/06/16 10:44:30;;;;;;;;;17.67;17.00;;;;;29.43;23.28;101260.50;4939841;28;45413;-77
2023/06/16 10:47:11;;;;;;;;;18.33;18.33;;;;;29.51;23.01;101279.72;4937754;28;45393;-78
2023/06/16 10:50:00;;;;;;;;;18.67;17.67;;;;;29.69;23.66;101274.94;4935745;28;47111;-78
2023/06/16 10:52:28;;;;;;;;;16.33;16.33;;;;;29.96;23.65;101274.78;4945943;28;45731;-78
2023/06/16 10:54:58;;;;;;;;;17.67;16.33;;;;;30.13;22.50;101266.34;4954665;28;45993;-77
2023/06/16 10:57:25;;;;;;;;;15.33;15.33;;;;;29.85;22.91;101208.06;4956856;28;45581;-78
2023/06/16 11:00:06;;;;;;;;;20.67;18.00;;;;;30.24;22.62;101273.69;4955714;28;46187;-76
2023/06/16 11:02:34;;;;;;;;;18.00;17.33;;;;;29.97;22.42;101244.09;4940133;28;45544;-76
2023/06/16 11:05:13;;;;;;;;;20.00;19.67;;;;;30.22;22.26;101270.22;4948994;28;45475;-77
2023/06/16 11:08:11;;;;;;;;;19.00;19.00;;;;;30.19;22.54;101265.06;4920751;28;45516;-76
2023/06/16 11:10:51;;;;;;;;;18.00;16.33;;;;;30.18;22.30;101260.59;4942226;28;45612;-75
2023/06/16 11:13:25;;;;;;;;;16.00;15.67;;;;;30.08;22.69;101237.94;4961018;28;45453;-74